No particular awareness of the weather is required.    There are no Weather-warnings


Meteo18 Weather Cam more information Meteo18 Weather Cam


Thunder radar more information blitzortung!


Rain radar more information rain snow radar


Visit our other weather sites:

Template documentation
and downloads

And another site



Weather Underground History page Text

Daily Summary for May 3, 2016 Units:  Metric    English   Both
« Previous Day
Next Day »
Daily Weekly Monthly Yearly Custom
  High: Low: Average:
Temperature: 16.1 °C 4.5 °C 11.1 °C
Dew Point: 9.5 °C 2.9 °C 6.5 °C
Humidity: 95 % 48 % 75 %
Wind Speed: 16.1 km/h 0.0 km/h 2.5 km/h
Wind Gust: 24.1 km/h - -
Wind:- - ENE
Pressure: 1027.3 hPa 1022.6 hPa -
Precipitation: 0.0 mm    
Historical Graphs
 
 
Tabular Data for May 3, 2016
Time Temperature Dew Point Pressure Wind Wind Speed Wind Gust Humidity Rainfall Rate (Hourly)
00:02 10.1 °C 7.2 °C 1023.2 hPa Calm     82 % 0.0 mm
00:07 10.0 °C 7.2 °C 1023.2 hPa Calm     83 % 0.0 mm
00:12 9.8 °C 6.9 °C 1023.2 hPa Calm     82 % 0.0 mm
00:17 9.4 °C 6.8 °C 1023.2 hPa Calm     84 % 0.0 mm
00:22 9.1 °C 6.5 °C 1023.2 hPa Calm     84 % 0.0 mm
00:27 8.9 °C 6.7 °C 1023.2 hPa Calm     86 % 0.0 mm
00:32 8.8 °C 6.8 °C 1022.9 hPa Calm     87 % 0.0 mm
00:37 8.7 °C 6.7 °C 1022.9 hPa Calm     87 % 0.0 mm
00:42 8.4 °C 6.4 °C 1022.9 hPa Calm     87 % 0.0 mm
00:47 8.3 °C 6.6 °C 1022.9 hPa Calm     89 % 0.0 mm
00:52 8.7 °C 7.3 °C 1022.9 hPa Calm     91 % 0.0 mm
00:57 8.9 °C 7.3 °C 1022.9 hPa Calm     90 % 0.0 mm
01:02 8.9 °C 7.3 °C 1022.9 hPa Calm     90 % 0.0 mm
01:07 8.9 °C 7.5 °C 1022.9 hPa Calm     91 % 0.0 mm
01:12 9.2 °C 7.8 °C 1022.9 hPa Calm     91 % 0.0 mm
01:17 9.4 °C 7.8 °C 1023.2 hPa Calm     90 % 0.0 mm
01:22 9.4 °C 7.8 °C 1022.9 hPa Calm     90 % 0.0 mm
01:27 9.4 °C 7.7 °C 1023.2 hPa Calm     89 % 0.0 mm
01:32 9.3 °C 7.6 °C 1023.2 hPa Calm     89 % 0.0 mm
01:37 9.2 °C 7.6 °C 1022.9 hPa Calm     90 % 0.0 mm
01:42 9.2 °C 7.6 °C 1022.9 hPa Calm     90 % 0.0 mm
01:47 9.2 °C 7.6 °C 1022.9 hPa Calm     90 % 0.0 mm
01:52 9.1 °C 7.5 °C 1022.9 hPa Calm     90 % 0.0 mm
01:57 8.9 °C 7.2 °C 1022.9 hPa Calm     89 % 0.0 mm
02:02 8.8 °C 7.2 °C 1023.2 hPa Calm     90 % 0.0 mm
02:07 8.8 °C 7.2 °C 1023.2 hPa Calm     90 % 0.0 mm
02:12 8.8 °C 7.2 °C 1022.9 hPa Calm     90 % 0.0 mm
02:17 8.9 °C 7.5 °C 1022.9 hPa Calm     91 % 0.0 mm
02:22 9.1 °C 7.9 °C 1023.2 hPa Calm     92 % 0.0 mm
02:27 9.3 °C 8.1 °C 1023.2 hPa Calm     92 % 0.0 mm
02:32 9.3 °C 8.1 °C 1023.2 hPa Calm     92 % 0.0 mm
02:37 9.4 °C 8.2 °C 1022.9 hPa Calm     92 % 0.0 mm
02:42 9.6 °C 8.4 °C 1022.9 hPa Calm     92 % 0.0 mm
02:47 9.6 °C 8.4 °C 1022.9 hPa Calm     92 % 0.0 mm
02:52 9.7 °C 8.5 °C 1022.9 hPa Calm     92 % 0.0 mm
02:57 9.8 °C 8.7 °C 1022.9 hPa Calm     93 % 0.0 mm
03:02 10.0 °C 8.8 °C 1022.9 hPa Calm     92 % 0.0 mm
03:07 10.1 °C 9.0 °C 1022.9 hPa Calm     93 % 0.0 mm
03:12 10.2 °C 9.0 °C 1022.9 hPa Calm     92 % 0.0 mm
03:17 10.4 °C 9.2 °C 1022.9 hPa Calm     92 % 0.0 mm
03:22 10.4 °C 9.2 °C 1022.9 hPa Calm     92 % 0.0 mm
03:27 10.5 °C 9.1 °C 1022.9 hPa Calm     91 % 0.0 mm
03:32 10.5 °C 9.1 °C 1022.9 hPa Calm     91 % 0.0 mm
03:37 10.4 °C 9.0 °C 1022.6 hPa Calm     91 % 0.0 mm
03:42 10.4 °C 9.0 °C 1022.6 hPa Calm     91 % 0.0 mm
03:47 10.4 °C 8.8 °C 1022.9 hPa Calm     90 % 0.0 mm
03:52 10.4 °C 8.8 °C 1022.9 hPa Calm     90 % 0.0 mm
03:57 10.2 °C 8.6 °C 1022.9 hPa Calm     90 % 0.0 mm
04:02 10.1 °C 8.5 °C 1022.9 hPa Calm     90 % 0.0 mm
04:07 9.9 °C 8.5 °C 1022.9 hPa Calm     91 % 0.0 mm
04:12 9.9 °C 8.5 °C 1022.9 hPa Calm     91 % 0.0 mm
04:17 9.8 °C 8.4 °C 1022.6 hPa Calm     91 % 0.0 mm
04:22 9.7 °C 8.5 °C 1022.6 hPa Calm     92 % 0.0 mm
04:32 9.7 °C 8.5 °C 1022.6 hPa Calm     92 % 0.0 mm
04:37 9.6 °C 8.4 °C 1022.9 hPa Calm     92 % 0.0 mm
04:42 9.5 °C 8.3 °C 1022.9 hPa Calm     92 % 0.0 mm
04:47 9.4 °C 8.3 °C 1022.6 hPa Calm     93 % 0.0 mm
04:52 9.4 °C 8.3 °C 1022.6 hPa Calm     93 % 0.0 mm
04:57 9.4 °C 8.3 °C 1022.9 hPa Calm     93 % 0.0 mm
05:02 9.4 °C 8.3 °C 1022.9 hPa Calm     93 % 0.0 mm
05:07 9.3 °C 8.2 °C 1022.9 hPa Calm     93 % 0.0 mm
05:12 9.3 °C 8.2 °C 1022.9 hPa Calm     93 % 0.0 mm
05:17 9.2 °C 8.1 °C 1022.9 hPa Calm     93 % 0.0 mm
05:22 9.2 °C 8.1 °C 1022.9 hPa Calm     93 % 0.0 mm
05:27 9.2 °C 8.1 °C 1022.9 hPa Calm     93 % 0.0 mm
05:32 9.2 °C 8.1 °C 1022.9 hPa Calm     93 % 0.0 mm
05:37 9.1 °C 8.0 °C 1022.9 hPa Calm     93 % 0.0 mm
05:42 9.1 °C 8.2 °C 1022.9 hPa Calm     94 % 0.0 mm
05:47 9.1 °C 8.2 °C 1022.9 hPa Calm     94 % 0.0 mm
05:52 9.1 °C 8.2 °C 1022.9 hPa Calm     94 % 0.0 mm
05:57 9.1 °C 8.2 °C 1022.9 hPa Calm     94 % 0.0 mm
06:02 9.1 °C 8.2 °C 1022.9 hPa Calm     94 % 0.0 mm
06:07 9.1 °C 8.2 °C 1022.9 hPa Calm     94 % 0.0 mm
06:12 9.2 °C 8.3 °C 1022.9 hPa Calm     94 % 0.0 mm
06:17 9.3 °C 8.5 °C 1022.9 hPa Calm     95 % 0.0 mm
06:22 9.3 °C 8.4 °C 1022.9 hPa Calm     94 % 0.0 mm
06:27 9.4 °C 8.5 °C 1022.9 hPa Calm     94 % 0.0 mm
06:32 9.4 °C 8.5 °C 1022.9 hPa Calm     94 % 0.0 mm
06:37 9.5 °C 8.6 °C 1022.9 hPa Calm     94 % 0.0 mm
06:42 9.6 °C 8.8 °C 1022.9 hPa Calm     95 % 0.0 mm
06:47 9.9 °C 9.1 °C 1022.9 hPa Calm     95 % 0.0 mm
06:52 10.2 °C 9.4 °C 1022.9 hPa Calm   6.4 km/h 95 % 0.0 mm
06:57 10.3 °C 9.4 °C 1023.2 hPa Calm   6.4 km/h 94 % 0.0 mm
07:02 10.5 °C 9.4 °C 1023.2 hPa ENE 1.6 km/h 4.8 km/h 93 % 0.0 mm
07:07 10.6 °C 9.5 °C 1023.2 hPa NE 9.7 km/h 9.7 km/h 93 % 0.0 mm
07:12 10.6 °C 9.5 °C 1023.2 hPa Calm   12.9 km/h 93 % 0.0 mm
07:17 10.6 °C 9.5 °C 1023.2 hPa East 3.2 km/h 12.9 km/h 93 % 0.0 mm
07:22 10.6 °C 9.4 °C 1023.2 hPa Calm   12.9 km/h 92 % 0.0 mm
07:27 10.6 °C 9.4 °C 1023.6 hPa East 4.8 km/h 14.5 km/h 92 % 0.0 mm
07:32 10.5 °C 9.1 °C 1023.6 hPa NNE 4.8 km/h 14.5 km/h 91 % 0.0 mm
07:37 10.4 °C 9.0 °C 1023.6 hPa ENE 1.6 km/h 11.3 km/h 91 % 0.0 mm
07:42 10.4 °C 9.0 °C 1023.6 hPa NE 3.2 km/h 11.3 km/h 91 % 0.0 mm
07:47 10.4 °C 8.8 °C 1023.6 hPa NE 6.4 km/h 9.7 km/h 90 % 0.0 mm
07:52 10.2 °C 8.1 °C 1023.9 hPa NE 8.0 km/h 14.5 km/h 87 % 0.0 mm
07:57 10.2 °C 8.1 °C 1023.9 hPa East 3.2 km/h 16.1 km/h 87 % 0.0 mm
08:02 10.2 °C 8.0 °C 1023.9 hPa NE 6.4 km/h 16.1 km/h 86 % 0.0 mm
08:12 10.2 °C 7.8 °C 1024.3 hPa NE 8.0 km/h 11.3 km/h 85 % 0.0 mm
08:17 10.1 °C 7.7 °C 1024.3 hPa NNE 4.8 km/h 16.1 km/h 85 % 0.0 mm
08:22 10.1 °C 7.5 °C 1024.3 hPa NE 4.8 km/h 16.1 km/h 84 % 0.0 mm
08:27 10.1 °C 7.3 °C 1024.3 hPa ENE 4.8 km/h 16.1 km/h 83 % 0.0 mm
08:32 10.0 °C 7.2 °C 1024.3 hPa East 12.9 km/h 12.9 km/h 83 % 0.0 mm
08:37 10.0 °C 7.4 °C 1024.3 hPa NNE 9.7 km/h 17.7 km/h 84 % 0.0 mm
08:42 10.1 °C 7.5 °C 1024.6 hPa ENE 1.6 km/h 17.7 km/h 84 % 0.0 mm
08:47 10.2 °C 7.6 °C 1024.6 hPa ENE 8.0 km/h 17.7 km/h 84 % 0.0 mm
08:52 10.2 °C 7.6 °C 1024.6 hPa NE 12.9 km/h 17.7 km/h 84 % 0.0 mm
08:57 10.2 °C 7.6 °C 1024.6 hPa NE 4.8 km/h 17.7 km/h 84 % 0.0 mm
09:02 10.1 °C 7.3 °C 1024.9 hPa NNE 8.0 km/h 14.5 km/h 83 % 0.0 mm
09:07 9.9 °C 7.3 °C 1024.9 hPa NE 6.4 km/h 14.5 km/h 84 % 0.0 mm
09:12 10.1 °C 7.5 °C 1024.9 hPa NE 6.4 km/h 14.5 km/h 84 % 0.0 mm
09:17 10.2 °C 7.6 °C 1024.9 hPa NE 4.8 km/h 16.1 km/h 84 % 0.0 mm
09:22 10.3 °C 7.5 °C 1024.9 hPa NNE 4.8 km/h 16.1 km/h 83 % 0.0 mm
09:37 10.8 °C 7.7 °C 1024.9 hPa NNE 4.8 km/h 14.5 km/h 81 % 0.0 mm
09:42 11.5 °C 8.0 °C 1024.9 hPa ENE 4.8 km/h 14.5 km/h 79 % 0.0 mm
09:47 11.3 °C 7.4 °C 1024.9 hPa NE 6.4 km/h 12.9 km/h 77 % 0.0 mm
09:52 11.1 °C 7.8 °C 1024.9 hPa NNE 4.8 km/h 12.9 km/h 80 % 0.0 mm
09:57 10.9 °C 7.6 °C 1025.3 hPa Calm   12.9 km/h 80 % 0.0 mm
10:02 10.9 °C 7.6 °C 1025.3 hPa NE 1.6 km/h 12.9 km/h 80 % 0.0 mm
10:07 10.9 °C 7.4 °C 1025.3 hPa NE 6.4 km/h 12.9 km/h 79 % 0.0 mm
10:12 10.8 °C 6.9 °C 1025.3 hPa NE 6.4 km/h 11.3 km/h 77 % 0.0 mm
10:17 10.7 °C 7.2 °C 1025.3 hPa ENE 6.4 km/h 11.3 km/h 79 % 0.0 mm
10:22 10.8 °C 7.1 °C 1025.3 hPa NE 3.2 km/h 11.3 km/h 78 % 0.0 mm
10:27 11.0 °C 6.9 °C 1025.6 hPa NE 6.4 km/h 11.3 km/h 76 % 0.0 mm
10:32 11.6 °C 7.3 °C 1025.6 hPa NNE 4.8 km/h 11.3 km/h 75 % 0.0 mm
10:37 11.8 °C 7.1 °C 1025.6 hPa ENE 1.6 km/h 11.3 km/h 73 % 0.0 mm
10:42 11.6 °C 7.1 °C 1025.6 hPa East 1.6 km/h 11.3 km/h 74 % 0.0 mm
10:47 11.9 °C 6.8 °C 1025.6 hPa East 3.2 km/h 12.9 km/h 71 % 0.0 mm
10:52 12.3 °C 6.8 °C 1025.6 hPa NE 11.3 km/h 14.5 km/h 69 % 0.0 mm
10:57 12.9 °C 7.6 °C 1025.6 hPa ENE 9.7 km/h 14.5 km/h 70 % 0.0 mm
11:02 13.1 °C 6.7 °C 1025.6 hPa NE 8.0 km/h 14.5 km/h 65 % 0.0 mm
11:07 13.2 °C 7.0 °C 1025.6 hPa ENE 1.6 km/h 14.5 km/h 66 % 0.0 mm
11:12 12.9 °C 6.9 °C 1025.6 hPa NE 4.8 km/h 14.5 km/h 67 % 0.0 mm
11:17 12.9 °C 6.9 °C 1025.6 hPa ESE 4.8 km/h 12.9 km/h 67 % 0.0 mm
11:22 12.5 °C 6.3 °C 1026.0 hPa NE 6.4 km/h 16.1 km/h 66 % 0.0 mm
11:27 12.9 °C 7.3 °C 1026.0 hPa NE 3.2 km/h 16.1 km/h 69 % 0.0 mm
11:32 13.4 °C 6.5 °C 1026.0 hPa NE 9.7 km/h 16.1 km/h 63 % 0.0 mm
11:42 13.4 °C 6.7 °C 1026.0 hPa ENE 1.6 km/h 12.9 km/h 64 % 0.0 mm
11:47 13.4 °C 7.0 °C 1026.0 hPa East 4.8 km/h 12.9 km/h 65 % 0.0 mm
11:52 13.4 °C 7.0 °C 1026.0 hPa NE 1.6 km/h 12.9 km/h 65 % 0.0 mm
11:57 13.5 °C 5.9 °C 1026.0 hPa ENE 3.2 km/h 12.9 km/h 60 % 0.0 mm
12:02 13.5 °C 5.9 °C 1026.0 hPa NE 3.2 km/h 12.9 km/h 60 % 0.0 mm
12:07 13.7 °C 5.1 °C 1026.0 hPa NNE 11.3 km/h 11.3 km/h 56 % 0.0 mm
12:12 13.8 °C 5.9 °C 1025.6 hPa SE 3.2 km/h 14.5 km/h 59 % 0.0 mm
12:17 13.8 °C 6.4 °C 1026.0 hPa Calm   17.7 km/h 61 % 0.0 mm
12:22 14.3 °C 6.1 °C 1026.0 hPa SE 3.2 km/h 17.7 km/h 58 % 0.0 mm
12:27 14.0 °C 5.9 °C 1026.0 hPa Calm   17.7 km/h 58 % 0.0 mm
12:32 14.1 °C 6.7 °C 1026.0 hPa ENE 9.7 km/h 11.3 km/h 61 % 0.0 mm
12:42 13.8 °C 5.9 °C 1026.0 hPa ENE 1.6 km/h 16.1 km/h 59 % 0.0 mm
12:47 13.9 °C 6.5 °C 1026.0 hPa ESE 6.4 km/h 16.1 km/h 61 % 0.0 mm
12:52 13.8 °C 4.9 °C 1026.0 hPa NE 4.8 km/h 16.1 km/h 55 % 0.0 mm
12:57 13.8 °C 5.7 °C 1026.0 hPa NNE 6.4 km/h 14.5 km/h 58 % 0.0 mm
13:02 13.6 °C 4.5 °C 1026.0 hPa ENE 4.8 km/h 16.1 km/h 54 % 0.0 mm
13:07 13.9 °C 5.5 °C 1026.0 hPa ENE 1.6 km/h 16.1 km/h 57 % 0.0 mm
13:12 14.3 °C 4.8 °C 1026.0 hPa ENE 9.7 km/h 16.1 km/h 53 % 0.0 mm
13:17 14.3 °C 5.9 °C 1026.0 hPa NE 4.8 km/h 19.3 km/h 57 % 0.0 mm
13:22 14.5 °C 6.1 °C 1026.0 hPa SE 4.8 km/h 19.3 km/h 57 % 0.0 mm
13:27 14.3 °C 5.6 °C 1026.0 hPa ENE 1.6 km/h 19.3 km/h 56 % 0.0 mm
13:32 14.2 °C 4.8 °C 1026.0 hPa ENE 6.4 km/h 19.3 km/h 53 % 0.0 mm
13:37 14.1 °C 4.7 °C 1026.0 hPa NE 4.8 km/h 14.5 km/h 53 % 0.0 mm
13:42 13.8 °C 4.9 °C 1026.0 hPa ENE 9.7 km/h 19.3 km/h 55 % 0.0 mm
13:52 15.0 °C 5.5 °C 1026.0 hPa NE 6.4 km/h 19.3 km/h 53 % 0.0 mm
13:57 15.3 °C 5.8 °C 1026.0 hPa ENE 1.6 km/h 17.7 km/h 53 % 0.0 mm
14:02 14.9 °C 4.6 °C 1026.0 hPa NE 9.7 km/h 17.7 km/h 50 % 0.0 mm
14:07 15.1 °C 5.0 °C 1026.0 hPa SSW 4.8 km/h 17.7 km/h 51 % 0.0 mm
14:12 15.1 °C 5.3 °C 1026.0 hPa North 1.6 km/h 12.9 km/h 52 % 0.0 mm
14:17 14.4 °C 4.1 °C 1026.0 hPa NNE 1.6 km/h 16.1 km/h 50 % 0.0 mm
14:27 14.8 °C 5.3 °C 1026.0 hPa NE 9.7 km/h 16.1 km/h 53 % 0.0 mm
14:32 14.7 °C 4.7 °C 1026.0 hPa NE 6.4 km/h 16.1 km/h 51 % 0.0 mm
14:37 15.1 °C 4.8 °C 1026.0 hPa NE 1.6 km/h 16.1 km/h 50 % 0.0 mm
14:42 15.3 °C 6.0 °C 1026.0 hPa ENE 1.6 km/h 19.3 km/h 54 % 0.0 mm
14:47 15.2 °C 6.0 °C 1026.0 hPa NE 3.2 km/h 17.7 km/h 54 % 0.0 mm
14:52 15.5 °C 6.0 °C 1026.0 hPa East 6.4 km/h 17.7 km/h 53 % 0.0 mm
14:57 14.9 °C 5.9 °C 1026.0 hPa ENE 6.4 km/h 24.1 km/h 55 % 0.0 mm
15:02 14.3 °C 5.4 °C 1026.0 hPa ESE 3.2 km/h 24.1 km/h 55 % 0.0 mm
15:07 14.3 °C 5.4 °C 1026.0 hPa Calm   16.1 km/h 55 % 0.0 mm
15:12 14.8 °C 5.6 °C 1026.0 hPa NNE 11.3 km/h 12.9 km/h 54 % 0.0 mm
15:17 14.7 °C 6.0 °C 1026.0 hPa NE 6.4 km/h 14.5 km/h 56 % 0.0 mm
15:32 14.6 °C 6.2 °C 1026.0 hPa North 16.1 km/h 16.1 km/h 57 % 0.0 mm
15:42 15.7 °C 5.9 °C 1026.0 hPa ESE 6.4 km/h 17.7 km/h 52 % 0.0 mm
15:47 15.9 °C 5.5 °C 1025.6 hPa SE 1.6 km/h 17.7 km/h 50 % 0.0 mm
15:52 16.1 °C 5.1 °C 1026.0 hPa NE 8.0 km/h 12.9 km/h 48 % 0.0 mm
15:57 15.8 °C 5.4 °C 1025.6 hPa ESE 1.6 km/h 14.5 km/h 50 % 0.0 mm
16:02 15.5 °C 5.1 °C 1026.0 hPa NNE 4.8 km/h 14.5 km/h 50 % 0.0 mm
16:07 16.1 °C 5.4 °C 1025.6 hPa NNE 4.8 km/h 16.1 km/h 49 % 0.0 mm
16:12 15.9 °C 5.8 °C 1026.0 hPa ENE 8.0 km/h 16.1 km/h 51 % 0.0 mm
16:17 15.4 °C 5.0 °C 1025.6 hPa NE 3.2 km/h 16.1 km/h 50 % 0.0 mm
16:22 15.7 °C 4.7 °C 1026.0 hPa NE 6.4 km/h 16.1 km/h 48 % 0.0 mm
16:27 15.4 °C 5.0 °C 1025.6 hPa NE 3.2 km/h 16.1 km/h 50 % 0.0 mm
16:32 14.9 °C 4.9 °C 1026.0 hPa NE 4.8 km/h 14.5 km/h 51 % 0.0 mm
16:37 14.6 °C 5.1 °C 1025.6 hPa NE 4.8 km/h 14.5 km/h 53 % 0.0 mm
16:42 14.4 °C 5.7 °C 1025.6 hPa NE 8.0 km/h 14.5 km/h 56 % 0.0 mm
16:47 14.3 °C 5.1 °C 1025.6 hPa NE 1.6 km/h 11.3 km/h 54 % 0.0 mm
16:52 14.4 °C 4.7 °C 1025.6 hPa NE 6.4 km/h 11.3 km/h 52 % 0.0 mm
16:57 14.3 °C 6.1 °C 1025.6 hPa ESE 1.6 km/h 12.9 km/h 58 % 0.0 mm
17:02 14.0 °C 5.9 °C 1026.0 hPa NE 6.4 km/h 12.9 km/h 58 % 0.0 mm
17:07 14.1 °C 6.7 °C 1025.6 hPa NNE 1.6 km/h 11.3 km/h 61 % 0.0 mm
17:12 14.8 °C 6.4 °C 1025.6 hPa NE 3.2 km/h 11.3 km/h 57 % 0.0 mm
17:17 14.6 °C 5.4 °C 1025.6 hPa ENE 3.2 km/h 11.3 km/h 54 % 0.0 mm
17:22 14.1 °C 6.0 °C 1025.6 hPa ENE 1.6 km/h 14.5 km/h 58 % 0.0 mm
17:27 14.2 °C 5.5 °C 1025.6 hPa ENE 1.6 km/h 14.5 km/h 56 % 0.0 mm
17:32 14.2 °C 6.3 °C 1025.6 hPa Calm   14.5 km/h 59 % 0.0 mm
17:37 14.7 °C 6.0 °C 1025.6 hPa Calm   8.0 km/h 56 % 0.0 mm
17:42 15.5 °C 6.0 °C 1025.6 hPa ENE 3.2 km/h 9.7 km/h 53 % 0.0 mm
17:47 15.7 °C 5.3 °C 1025.6 hPa NNE 6.4 km/h 14.5 km/h 50 % 0.0 mm
17:52 15.6 °C 5.5 °C 1025.6 hPa NE 3.2 km/h 14.5 km/h 51 % 0.0 mm
17:57 15.5 °C 6.2 °C 1025.6 hPa NE 6.4 km/h 16.1 km/h 54 % 0.0 mm
18:02 15.4 °C 5.6 °C 1025.6 hPa ESE 3.2 km/h 16.1 km/h 52 % 0.0 mm
18:07 15.5 °C 6.2 °C 1025.6 hPa North 4.8 km/h 9.7 km/h 54 % 0.0 mm
18:12 15.4 °C 6.1 °C 1025.6 hPa NE 3.2 km/h 9.7 km/h 54 % 0.0 mm
18:17 14.8 °C 5.0 °C 1025.6 hPa ENE 1.6 km/h 9.7 km/h 52 % 0.0 mm
18:22 14.1 °C 5.5 °C 1025.6 hPa North 3.2 km/h 9.7 km/h 56 % 0.0 mm
18:27 13.5 °C 5.6 °C 1025.6 hPa Calm   9.7 km/h 59 % 0.0 mm
18:32 13.3 °C 4.4 °C 1025.6 hPa NE 4.8 km/h 9.7 km/h 55 % 0.0 mm
18:42 13.2 °C 5.1 °C 1025.6 hPa NE 1.6 km/h 9.7 km/h 58 % 0.0 mm
18:47 13.3 °C 5.5 °C 1025.6 hPa NNE 3.2 km/h 9.7 km/h 59 % 0.0 mm
18:52 13.8 °C 5.4 °C 1025.6 hPa ENE 6.4 km/h 9.7 km/h 57 % 0.0 mm
18:57 14.1 °C 4.7 °C 1025.6 hPa NNE 4.8 km/h 11.3 km/h 53 % 0.0 mm
19:02 14.1 °C 5.2 °C 1025.6 hPa NE 6.4 km/h 14.5 km/h 55 % 0.0 mm
19:12 14.0 °C 5.6 °C 1025.6 hPa NE 4.8 km/h 14.5 km/h 57 % 0.0 mm
19:22 13.9 °C 5.3 °C 1025.6 hPa NE 3.2 km/h 8.0 km/h 56 % 0.0 mm
19:27 13.9 °C 5.5 °C 1025.6 hPa ENE 3.2 km/h 6.4 km/h 57 % 0.0 mm
19:32 13.8 °C 4.4 °C 1026.0 hPa ENE 4.8 km/h 8.0 km/h 53 % 0.0 mm
19:37 13.7 °C 4.8 °C 1026.0 hPa East 4.8 km/h 9.7 km/h 55 % 0.0 mm
19:42 13.4 °C 5.1 °C 1026.0 hPa NE 4.8 km/h 9.7 km/h 57 % 0.0 mm
19:47 13.2 °C 4.9 °C 1026.0 hPa East 1.6 km/h 9.7 km/h 57 % 0.0 mm
19:52 12.9 °C 4.8 °C 1026.0 hPa ENE 1.6 km/h 8.0 km/h 58 % 0.0 mm
19:57 12.6 °C 5.0 °C 1026.0 hPa Calm   8.0 km/h 60 % 0.0 mm
20:02 12.3 °C 4.8 °C 1026.0 hPa NE 3.2 km/h 8.0 km/h 60 % 0.0 mm
20:07 12.1 °C 4.8 °C 1026.0 hPa Calm   6.4 km/h 61 % 0.0 mm
20:12 11.8 °C 5.0 °C 1026.0 hPa Calm   6.4 km/h 63 % 0.0 mm
20:17 11.6 °C 5.0 °C 1026.0 hPa Calm   6.4 km/h 64 % 0.0 mm
20:22 11.4 °C 4.8 °C 1026.0 hPa Calm   6.4 km/h 64 % 0.0 mm
20:32 10.8 °C 5.3 °C 1026.0 hPa NE 1.6 km/h 4.8 km/h 69 % 0.0 mm
20:37 10.7 °C 5.2 °C 1026.3 hPa NE 1.6 km/h 3.2 km/h 69 % 0.0 mm
20:42 10.6 °C 5.6 °C 1026.3 hPa Calm   1.6 km/h 71 % 0.0 mm
20:47 10.3 °C 5.3 °C 1026.3 hPa Calm   3.2 km/h 71 % 0.0 mm
20:52 10.2 °C 5.2 °C 1026.3 hPa Calm   3.2 km/h 71 % 0.0 mm
20:57 9.9 °C 5.1 °C 1026.3 hPa Calm   3.2 km/h 72 % 0.0 mm
21:02 9.7 °C 4.9 °C 1026.3 hPa NE 1.6 km/h 1.6 km/h 72 % 0.0 mm
21:12 9.4 °C 4.8 °C 1026.3 hPa Calm   1.6 km/h 73 % 0.0 mm
21:17 9.2 °C 4.8 °C 1026.6 hPa Calm   1.6 km/h 74 % 0.0 mm
21:22 9.0 °C 4.6 °C 1026.6 hPa Calm   1.6 km/h 74 % 0.0 mm
21:27 8.8 °C 5.0 °C 1026.6 hPa Calm   1.6 km/h 77 % 0.0 mm
21:32 8.4 °C 4.8 °C 1026.6 hPa Calm     78 % 0.0 mm
21:37 8.2 °C 4.8 °C 1026.6 hPa Calm     79 % 0.0 mm
21:42 7.9 °C 4.5 °C 1027.0 hPa Calm     79 % 0.0 mm
21:47 7.7 °C 4.5 °C 1027.0 hPa Calm     80 % 0.0 mm
21:52 7.5 °C 4.5 °C 1027.0 hPa Calm     81 % 0.0 mm
21:57 7.3 °C 4.3 °C 1027.0 hPa Calm     81 % 0.0 mm
22:02 7.1 °C 4.2 °C 1027.0 hPa Calm     82 % 0.0 mm
22:07 7.0 °C 4.3 °C 1027.0 hPa Calm     83 % 0.0 mm
22:12 6.8 °C 4.3 °C 1027.0 hPa Calm     84 % 0.0 mm
22:17 6.6 °C 4.1 °C 1027.0 hPa Calm     84 % 0.0 mm
22:22 6.3 °C 3.8 °C 1027.3 hPa Calm     84 % 0.0 mm
22:32 5.8 °C 3.6 °C 1027.3 hPa Calm     86 % 0.0 mm
22:37 5.7 °C 3.7 °C 1027.3 hPa Calm     87 % 0.0 mm
22:47 5.4 °C 3.6 °C 1027.3 hPa Calm     88 % 0.0 mm
22:52 5.4 °C 3.7 °C 1027.3 hPa Calm     89 % 0.0 mm
22:57 5.4 °C 3.7 °C 1027.3 hPa Calm     89 % 0.0 mm
23:02 5.5 °C 3.7 °C 1027.3 hPa Calm     88 % 0.0 mm
23:07 5.5 °C 3.7 °C 1027.3 hPa Calm     88 % 0.0 mm
23:12 5.4 °C 3.6 °C 1027.3 hPa Calm     88 % 0.0 mm
23:17 5.3 °C 3.5 °C 1027.3 hPa Calm     88 % 0.0 mm
23:22 5.1 °C 3.3 °C 1027.3 hPa Calm     88 % 0.0 mm
23:27 4.9 °C 3.1 °C 1027.3 hPa Calm     88 % 0.0 mm
23:32 4.8 °C 3.1 °C 1027.3 hPa Calm     89 % 0.0 mm
23:37 4.7 °C 3.0 °C 1027.3 hPa Calm     89 % 0.0 mm
23:42 4.6 °C 2.9 °C 1027.3 hPa Calm     89 % 0.0 mm
23:47 4.5 °C 3.0 °C 1027.3 hPa Calm     90 % 0.0 mm
23:52 4.5 °C 3.0 °C 1027.3 hPa Calm     90 % 0.0 mm
23:57 4.5 °C 3.0 °C 1027.3 hPa Calm     90 % 0.0 mm
Meteo18
Compliments of Weather Underground - 4 mb

Script developed by  Jim McMurry - jmcmurry@mwt.net Adapted for the template by  Wim van der Kuil - Leuven-Template.eu

You find our weather info also at:

European Weather Network

Weather Underground

Equipment we use:

Weather-station
Davis Vue

Weather-program
Meteohub

Weather-server
Raspberry PI 2 B+

Provider
1 and 1

Davis Vue

Meteohub

Raspberry PI 2 B+

1 and 1